Time;durP1;ratioP1;P1;durP2;ratioP2;P2;SDS_P1;SDS_P2;PMS_P1;PMS_P2;Temp;Humidity;BMP_temperature;BMP_pressure;BME280_temperature;BME280_humidity;BME280_pressure;Samples;Min_cycle;Max_cycle;Signal;HPM_P1;HPM_P2
2022/05/16 00:01:47;;;;;;;1999.90;999.90;;;;;;;-145.26;100.00;63821.50;5009687;28;20061;-67
2022/05/16 00:04:12;;;;;;;1999.90;999.90;;;;;;;-145.26;100.00;63821.50;5009494;28;20022;-66
2022/05/16 00:06:38;;;;;;;1999.90;999.90;;;;;;;-145.26;100.00;63821.50;5009459;28;20115;-67
2022/05/16 00:09:03;;;;;;;1999.90;999.90;;;;;;;-145.26;100.00;63821.50;5008291;28;20045;-67
2022/05/16 00:11:29;;;;;;;1999.90;999.90;;;;;;;-145.26;100.00;63821.50;5009404;28;20482;-67
2022/05/16 00:13:54;;;;;;;1999.90;999.90;;;;;;;-145.26;100.00;63821.50;5009366;28;20026;-67
2022/05/16 00:16:20;;;;;;;1999.90;999.90;;;;;;;-145.26;100.00;63821.50;5009428;28;20112;-67
2022/05/16 00:18:46;;;;;;;1999.90;999.90;;;;;;;-145.26;100.00;63821.50;5008162;28;20131;-67
2022/05/16 00:21:11;;;;;;;1999.90;999.90;;;;;;;-145.26;100.00;63821.50;5009314;28;20033;-66
2022/05/16 00:23:36;;;;;;;1999.90;999.90;;;;;;;-145.26;100.00;63821.50;5008330;28;20036;-67
2022/05/16 00:26:02;;;;;;;1999.90;999.90;;;;;;;-145.26;100.00;63821.50;5009317;28;20037;-67
2022/05/16 00:28:28;;;;;;;1999.90;999.90;;;;;;;-145.26;100.00;63821.50;5009100;28;20032;-67
2022/05/16 00:30:53;;;;;;;1999.90;999.90;;;;;;;-145.26;100.00;63821.50;5008414;28;20367;-66
2022/05/16 00:33:18;;;;;;;1999.90;999.90;;;;;;;-145.26;100.00;63821.50;4973621;28;20031;-67
2022/05/16 00:35:44;;;;;;;1999.90;999.90;;;;;;;-145.26;100.00;63821.50;4989787;28;20019;-67
2022/05/16 00:38:09;;;;;;;1999.90;999.90;;;;;;;-145.26;100.00;63821.50;4991291;28;20028;-67
2022/05/16 00:40:35;;;;;;;1999.90;999.90;;;;;;;-145.26;100.00;63821.50;4991581;28;20096;-67
2022/05/16 00:43:03;;;;;;;1999.90;999.90;;;;;;;-145.26;100.00;63821.50;5009158;28;20018;-67
2022/05/16 00:45:29;;;;;;;1999.90;999.90;;;;;;;-145.26;100.00;63821.50;5008499;28;20672;-67
2022/05/16 00:47:55;;;;;;;1999.90;999.90;;;;;;;-145.26;100.00;63821.50;5007334;28;20030;-67
2022/05/16 00:50:20;;;;;;;1999.90;999.90;;;;;;;-145.26;100.00;63821.50;5008040;28;20084;-69
2022/05/16 00:52:49;;;;;;;1999.90;999.90;;;;;;;-145.26;100.00;63821.50;5009003;28;20102;-67
2022/05/16 00:55:37;;;;;;;1999.90;999.90;;;;;;;-145.26;100.00;63821.50;5009144;28;20105;-65
2022/05/16 00:58:15;;;;;;;1999.90;999.90;;;;;;;-145.26;100.00;63821.50;5011474;28;20040;-67
2022/05/16 01:00:42;;;;;;;1999.90;999.90;;;;;;;-145.26;100.00;63821.50;5011024;28;20530;-67
2022/05/16 01:06:10;;;;;;;1999.90;999.90;;;;;;;-145.26;100.00;63821.50;5012515;28;20044;-67
2022/05/16 01:08:39;;;;;;;1999.90;999.90;;;;;;;-145.26;100.00;63821.50;5011438;28;20030;-66
2022/05/16 01:11:11;;;;;;;1999.90;999.90;;;;;;;-145.26;100.00;63821.50;5011568;28;20026;-67
2022/05/16 01:13:36;;;;;;;1999.90;999.90;;;;;;;-145.26;100.00;63821.50;5011716;28;20053;-66
2022/05/16 01:16:03;;;;;;;1999.90;999.90;;;;;;;-145.26;100.00;63821.50;5012297;28;20038;-66
2022/05/16 01:18:28;;;;;;;1999.90;999.90;;;;;;;-145.26;100.00;63821.50;5011686;28;20030;-67
2022/05/16 01:21:07;;;;;;;1999.90;999.90;;;;;;;-145.26;100.00;63821.50;5011273;28;20084;-67
2022/05/16 01:23:45;;;;;;;1999.90;999.90;;;;;;;-145.26;100.00;63821.50;5012008;28;20026;-67
2022/05/16 01:26:20;;;;;;;1999.90;999.90;;;;;;;-145.26;100.00;63821.50;5011192;28;20045;-67
2022/05/16 01:28:46;;;;;;;1999.90;999.90;;;;;;;-145.26;100.00;63821.50;5011497;28;20030;-68
2022/05/16 01:31:11;;;;;;;1999.90;999.90;;;;;;;-145.26;100.00;63821.50;5011070;28;20152;-67
2022/05/16 01:33:37;;;;;;;1999.90;999.90;;;;;;;-145.26;100.00;63821.50;5011916;28;20109;-67
2022/05/16 01:36:03;;;;;;;1999.90;999.90;;;;;;;-145.26;100.00;63821.50;5011948;28;20462;-66
2022/05/16 01:38:31;;;;;;;1999.90;999.90;;;;;;;-145.26;100.00;63821.50;5011468;28;20060;-67
2022/05/16 01:41:18;;;;;;;1999.90;999.90;;;;;;;-145.26;100.00;63821.50;5011085;28;20088;-67
2022/05/16 01:43:49;;;;;;;1999.90;999.90;;;;;;;-145.26;100.00;63821.50;4993946;28;20037;-67
2022/05/16 01:46:19;;;;;;;1999.90;999.90;;;;;;;-145.26;100.00;63821.50;5011782;28;20030;-67
2022/05/16 01:48:45;;;;;;;1999.90;999.90;;;;;;;-145.26;100.00;63821.50;5010432;28;20038;-66
2022/05/16 01:51:12;;;;;;;1999.90;999.90;;;;;;;-145.26;100.00;63821.50;5011672;28;20530;-67
2022/05/16 01:53:39;;;;;;;1999.90;999.90;;;;;;;-145.26;100.00;63821.50;5011593;28;20026;-67
2022/05/16 01:56:05;;;;;;;1999.90;999.90;;;;;;;-145.26;100.00;63821.50;5010629;28;20037;-68
2022/05/16 01:58:30;;;;;;;1999.90;999.90;;;;;;;-145.26;100.00;63821.50;5011200;28;20030;-67
2022/05/16 02:00:56;;;;;;;1999.90;999.90;;;;;;;-145.26;100.00;63821.50;5011548;28;20026;-67
2022/05/16 02:03:22;;;;;;;1999.90;999.90;;;;;;;-145.26;100.00;63821.50;5011460;28;20034;-67
2022/05/16 02:05:48;;;;;;;1999.90;999.90;;;;;;;-145.26;100.00;63821.50;5009879;28;20069;-67
2022/05/16 02:08:14;;;;;;;1999.90;999.90;;;;;;;-145.26;100.00;63821.50;5009845;28;20073;-69
2022/05/16 02:10:41;;;;;;;1999.90;999.90;;;;;;;-145.26;100.00;63821.50;5010520;28;21184;-67
2022/05/16 02:13:06;;;;;;;1999.90;999.90;;;;;;;-145.26;100.00;63821.50;5011189;28;20121;-67
2022/05/16 02:15:34;;;;;;;1999.90;999.90;;;;;;;-145.26;100.00;63821.50;5011157;28;20104;-67
2022/05/16 02:18:00;;;;;;;1999.90;999.90;;;;;;;-145.26;100.00;63821.50;5009914;28;20117;-67
2022/05/16 02:20:27;;;;;;;1999.90;999.90;;;;;;;-145.26;100.00;63821.50;5010706;28;20101;-67
2022/05/16 02:25:41;;;;;;;1999.90;999.90;;;;;;;-145.26;100.00;63821.50;5009250;28;20087;-67
2022/05/16 02:28:09;;;;;;;1999.90;999.90;;;;;;;-145.26;100.00;63821.50;4990173;28;20087;-67
2022/05/16 02:30:36;;;;;;;1999.90;999.90;;;;;;;-145.26;100.00;63821.50;4991012;28;20029;-67
2022/05/16 02:33:02;;;;;;;1999.90;999.90;;;;;;;-145.26;100.00;63821.50;4991190;28;20113;-67
2022/05/16 02:35:29;;;;;;;1999.90;999.90;;;;;;;-145.26;100.00;63821.50;4991182;28;20022;-67
2022/05/16 02:37:58;;;;;;;1999.90;999.90;;;;;;;-145.26;100.00;63821.50;5009682;28;20040;-67
2022/05/16 02:40:25;;;;;;;1999.90;999.90;;;;;;;-145.26;100.00;63821.50;5010303;28;20493;-67
2022/05/16 02:42:51;;;;;;;1999.90;999.90;;;;;;;-145.26;100.00;63821.50;5009625;28;20511;-67
2022/05/16 02:45:16;;;;;;;1999.90;999.90;;;;;;;-145.26;100.00;63821.50;5010504;28;20113;-67
2022/05/16 02:47:42;;;;;;;1999.90;999.90;;;;;;;-145.26;100.00;63821.50;5009480;28;20394;-67
2022/05/16 02:50:08;;;;;;;1999.90;999.90;;;;;;;-145.26;100.00;63821.50;5009556;28;20434;-67
2022/05/16 02:52:33;;;;;;;1999.90;999.90;;;;;;;-145.26;100.00;63821.50;5010111;28;20029;-68
2022/05/16 02:55:02;;;;;;;1999.90;999.90;;;;;;;-145.26;100.00;63821.50;5010435;28;20029;-67
2022/05/16 02:57:28;;;;;;;1999.90;999.90;;;;;;;-145.26;100.00;63821.50;5009527;28;20057;-67
2022/05/16 02:59:54;;;;;;;1999.90;999.90;;;;;;;-145.26;100.00;63821.50;5009891;28;20033;-67
2022/05/16 03:02:20;;;;;;;1999.90;999.90;;;;;;;-145.26;100.00;63821.50;5010152;28;20773;-67
2022/05/16 03:04:45;;;;;;;1999.90;999.90;;;;;;;-145.26;100.00;63821.50;5010049;28;20037;-67
2022/05/16 03:07:11;;;;;;;1999.90;999.90;;;;;;;-145.26;100.00;63821.50;5009331;28;20025;-67
2022/05/16 03:09:36;;;;;;;1999.90;999.90;;;;;;;-145.26;100.00;63821.50;5009936;28;20601;-67
2022/05/16 03:12:02;;;;;;;1999.90;999.90;;;;;;;-145.26;100.00;63821.50;5009117;28;20033;-67
2022/05/16 03:14:28;;;;;;;1999.90;999.90;;;;;;;-145.26;100.00;63821.50;5009884;28;20483;-67
2022/05/16 03:16:53;;;;;;;1999.90;999.90;;;;;;;-145.26;100.00;63821.50;5009970;28;20116;-67
2022/05/16 03:19:19;;;;;;;1999.90;999.90;;;;;;;-145.26;100.00;63821.50;5008667;28;20287;-68
2022/05/16 03:21:44;;;;;;;1999.90;999.90;;;;;;;-145.26;100.00;63821.50;5009603;28;20026;-67
2022/05/16 03:24:10;;;;;;;1999.90;999.90;;;;;;;-145.26;100.00;63821.50;4992289;28;20022;-67
2022/05/16 03:26:37;;;;;;;1999.90;999.90;;;;;;;-145.26;100.00;63821.50;5009714;28;20148;-68
2022/05/16 03:29:06;;;;;;;1999.90;999.90;;;;;;;-145.26;100.00;63821.50;5008369;28;20045;-67
2022/05/16 03:31:32;;;;;;;1999.90;999.90;;;;;;;-145.26;100.00;63821.50;5009899;28;20028;-67
2022/05/16 03:33:57;;;;;;;1999.90;999.90;;;;;;;-145.26;100.00;63821.50;5009930;28;20017;-67
2022/05/16 03:36:22;;;;;;;1999.90;999.90;;;;;;;-145.26;100.00;63821.50;5009873;28;20144;-67
2022/05/16 03:41:32;;;;;;;1999.90;999.90;;;;;;;-145.26;100.00;63821.50;5009927;28;20144;-67
2022/05/16 03:43:57;;;;;;;1999.90;999.90;;;;;;;-145.26;100.00;63821.50;5008712;28;20506;-67
2022/05/16 03:46:24;;;;;;;1999.90;999.90;;;;;;;-145.26;100.00;63821.50;4991935;28;20383;-67
2022/05/16 03:48:49;;;;;;;1999.90;999.90;;;;;;;-145.26;100.00;63821.50;5009228;28;20504;-68
2022/05/16 03:51:15;;;;;;;1999.90;999.90;;;;;;;-145.26;100.00;63821.50;5008685;28;20037;-67
2022/05/16 03:53:47;;;;;;;1999.90;999.90;;;;;;;-145.26;100.00;63821.50;5009453;28;20030;-67
2022/05/16 03:56:17;;;;;;;1999.90;999.90;;;;;;;-145.26;100.00;63821.50;5009717;28;20033;-68
2022/05/16 03:58:43;;;;;;;1999.90;999.90;;;;;;;-145.26;100.00;63821.50;5008194;28;20497;-67
2022/05/16 04:01:09;;;;;;;1999.90;999.90;;;;;;;-145.26;100.00;63821.50;5009648;28;20030;-67
2022/05/16 04:03:35;;;;;;;1999.90;999.90;;;;;;;-145.26;100.00;63821.50;5009458;28;20018;-67
2022/05/16 04:06:00;;;;;;;1999.90;999.90;;;;;;;-145.26;100.00;63821.50;5009587;28;20022;-67
2022/05/16 04:08:28;;;;;;;1999.90;999.90;;;;;;;-145.26;100.00;63821.50;5008039;28;20031;-67
2022/05/16 04:10:54;;;;;;;1999.90;999.90;;;;;;;-145.26;100.00;63821.50;5008798;28;20029;-67
2022/05/16 04:13:19;;;;;;;1999.90;999.90;;;;;;;-145.26;100.00;63821.50;5008461;28;20034;-67
2022/05/16 04:15:45;;;;;;;1999.90;999.90;;;;;;;-145.26;100.00;63821.50;5009362;28;20084;-67
2022/05/16 04:18:10;;;;;;;1999.90;999.90;;;;;;;-145.26;100.00;63821.50;5009160;28;20132;-67
2022/05/16 04:20:35;;;;;;;1999.90;999.90;;;;;;;-145.26;100.00;63821.50;5008256;28;20030;-66
2022/05/16 04:23:01;;;;;;;1999.90;999.90;;;;;;;-145.26;100.00;63821.50;5009330;28;20029;-68
2022/05/16 04:25:27;;;;;;;1999.90;999.90;;;;;;;-145.26;100.00;63821.50;5009177;28;20117;-67
2022/05/16 04:27:53;;;;;;;1999.90;999.90;;;;;;;-145.26;100.00;63821.50;5009143;28;20108;-67
2022/05/16 04:30:18;;;;;;;1999.90;999.90;;;;;;;-145.26;100.00;63821.50;5009507;28;20113;-67
2022/05/16 04:32:44;;;;;;;1999.90;999.90;;;;;;;-145.26;100.00;63821.50;5012595;28;20033;-67
2022/05/16 04:35:09;;;;;;;1999.90;999.90;;;;;;;-145.26;100.00;63821.50;5013010;28;20026;-67
2022/05/16 04:37:34;;;;;;;1999.90;999.90;;;;;;;-145.26;100.00;63821.50;5012787;28;20394;-67
2022/05/16 04:40:05;;;;;;;1999.90;999.90;;;;;;;-145.26;100.00;63821.50;5010916;28;20088;-67
2022/05/16 04:42:43;;;;;;;1999.90;999.90;;;;;;;-145.26;100.00;63821.50;5012662;28;20029;-67
2022/05/16 04:45:24;;;;;;;1999.90;999.90;;;;;;;-145.26;100.00;63821.50;5012161;28;20122;-67
2022/05/16 04:47:54;;;;;;;1999.90;999.90;;;;;;;-145.26;100.00;63821.50;4995239;28;20532;-67
2022/05/16 04:50:26;;;;;;;1999.90;999.90;;;;;;;-145.26;100.00;63821.50;5012525;28;20486;-68
2022/05/16 04:52:52;;;;;;;1999.90;999.90;;;;;;;-145.26;100.00;63821.50;5011618;28;20525;-68
2022/05/16 04:55:18;;;;;;;1999.90;999.90;;;;;;;-145.26;100.00;63821.50;5012546;28;20018;-67
2022/05/16 04:57:43;;;;;;;1999.90;999.90;;;;;;;-145.26;100.00;63821.50;5012488;28;20060;-67
2022/05/16 05:00:11;;;;;;;1999.90;999.90;;;;;;;-145.26;100.00;63821.50;5010319;28;20727;-67
2022/05/16 05:02:37;;;;;;;1999.90;999.90;;;;;;;-145.26;100.00;63821.50;5012251;28;20022;-67
2022/05/16 05:05:04;;;;;;;1999.90;999.90;;;;;;;-145.26;100.00;63821.50;5011706;28;20101;-67
2022/05/16 05:07:30;;;;;;;1999.90;999.90;;;;;;;-145.26;100.00;63821.50;5012201;28;20066;-68
2022/05/16 05:15:23;;;;;;;1999.90;999.90;;;;;;;-145.26;100.00;63821.50;4997494;28;20048;-68
2022/05/16 05:17:48;;;;;;;1999.90;999.90;;;;;;;-145.26;100.00;63821.50;5012179;28;20498;-68
2022/05/16 05:20:15;;;;;;;1999.90;999.90;;;;;;;-145.26;100.00;63821.50;5011725;28;20014;-67
2022/05/16 05:22:42;;;;;;;1999.90;999.90;;;;;;;-145.26;100.00;63821.50;5010870;28;20084;-68
2022/05/16 05:25:11;;;;;;;1999.90;999.90;;;;;;;-145.26;100.00;63821.50;5011947;28;20022;-67
2022/05/16 05:27:38;;;;;;;1999.90;999.90;;;;;;;-145.26;100.00;63821.50;5011690;28;20030;-67
2022/05/16 05:30:05;;;;;;;1999.90;999.90;;;;;;;-145.26;100.00;63821.50;5011091;28;20026;-67
2022/05/16 05:32:30;;;;;;;1999.90;999.90;;;;;;;-145.26;100.00;63821.50;5011313;28;20044;-67
2022/05/16 05:34:55;;;;;;;1999.90;999.90;;;;;;;-145.26;100.00;63821.50;5011562;28;20386;-68
2022/05/16 05:37:21;;;;;;;1999.90;999.90;;;;;;;-145.26;100.00;63821.50;5011856;28;20034;-67
2022/05/16 05:39:46;;;;;;;1999.90;999.90;;;;;;;-145.26;100.00;63821.50;4993718;28;20037;-67
2022/05/16 05:42:12;;;;;;;1999.90;999.90;;;;;;;-145.26;100.00;63821.50;5010615;28;20501;-65
2022/05/16 05:44:37;;;;;;;1999.90;999.90;;;;;;;-145.26;100.00;63821.50;5011428;28;20330;-67
2022/05/16 05:47:03;;;;;;;1999.90;999.90;;;;;;;-145.26;100.00;63821.50;5010640;28;20040;-65
2022/05/16 05:49:28;;;;;;;1999.90;999.90;;;;;;;-145.26;100.00;63821.50;5010863;28;20026;-70
2022/05/16 05:51:55;;;;;;;1999.90;999.90;;;;;;;-145.26;100.00;63821.50;5007596;28;20057;-70
2022/05/16 05:54:21;;;;;;;1999.90;999.90;;;;;;;-145.26;100.00;63821.50;5015220;28;20157;-68
2022/05/16 05:56:46;;;;;;;1999.90;999.90;;;;;;;-145.26;100.00;63821.50;5010894;28;20439;-68
2022/05/16 05:59:11;;;;;;;1999.90;999.90;;;;;;;-145.26;100.00;63821.50;5009684;28;20096;-68
2022/05/16 06:01:37;;;;;;;1999.90;999.90;;;;;;;-145.26;100.00;63821.50;5009343;28;20038;-68
2022/05/16 06:04:02;;;;;;;1999.90;999.90;;;;;;;-145.26;100.00;63821.50;5020818;28;20026;-68
2022/05/16 06:06:28;;;;;;;1999.90;999.90;;;;;;;-145.26;100.00;63821.50;5010278;28;20034;-68
2022/05/16 06:08:54;;;;;;;1999.90;999.90;;;;;;;-145.26;100.00;63821.50;4992177;28;20112;-66
2022/05/16 06:11:20;;;;;;;1999.90;999.90;;;;;;;-145.26;100.00;63821.50;5009268;28;20069;-66
2022/05/16 06:13:45;;;;;;;1999.90;999.90;;;;;;;-145.26;100.00;63821.50;5031315;28;20025;-66
2022/05/16 06:16:10;;;;;;;1999.90;999.90;;;;;;;-145.26;100.00;63821.50;5020197;28;20022;-64
2022/05/16 06:18:36;;;;;;;1999.90;999.90;;;;;;;-145.26;100.00;63821.50;5016105;28;20490;-65
2022/05/16 06:21:03;;;;;;;1999.90;999.90;;;;;;;-145.26;100.00;63821.50;5009838;28;20032;-64
2022/05/16 06:23:28;;;;;;;1999.90;999.90;;;;;;;-145.26;100.00;63821.50;5025482;28;20030;-65
2022/05/16 06:25:53;;;;;;;1999.90;999.90;;;;;;;-145.26;100.00;63821.50;4991605;28;20474;-65
2022/05/16 06:28:22;;;;;;;1999.90;999.90;;;;;;;-145.26;100.00;63821.50;5015546;28;20061;-66
2022/05/16 06:30:51;;;;;;;1999.90;999.90;;;;;;;-145.26;100.00;63821.50;5005704;28;20022;-65
2022/05/16 06:33:19;;;;;;;1999.90;999.90;;;;;;;-145.26;100.00;63821.50;5023845;28;20045;-66
2022/05/16 06:35:45;;;;;;;1999.90;999.90;;;;;;;-145.26;100.00;63821.50;5028851;28;20033;-65
2022/05/16 06:38:15;;;;;;;1999.90;999.90;;;;;;;-145.26;100.00;63821.50;5009395;28;20100;-66
2022/05/16 06:40:43;;;;;;;1999.90;999.90;;;;;;;-145.26;100.00;63821.50;4988251;28;20069;-66
2022/05/16 06:43:08;;;;;;;1999.90;999.90;;;;;;;-145.26;100.00;63821.50;5011053;28;21682;-66
2022/05/16 06:45:34;;;;;;;1999.90;999.90;;;;;;;-145.26;100.00;63821.50;5025190;28;20026;-68
2022/05/16 06:48:01;;;;;;;1999.90;999.90;;;;;;;-145.26;100.00;63821.50;5008649;28;20122;-68
2022/05/16 06:50:27;;;;;;;1999.90;999.90;;;;;;;-145.26;100.00;63821.50;5030250;28;20021;-66
2022/05/16 06:52:52;;;;;;;1999.90;999.90;;;;;;;-145.26;100.00;63821.50;5001584;28;20375;-66
2022/05/16 06:55:18;;;;;;;1999.90;999.90;;;;;;;-145.26;100.00;63821.50;4995206;28;20017;-64
2022/05/16 06:57:43;;;;;;;1999.90;999.90;;;;;;;-145.26;100.00;63821.50;4991703;28;20043;-65
2022/05/16 07:00:09;;;;;;;1999.90;999.90;;;;;;;-145.26;100.00;63821.50;5023342;28;20041;-65
2022/05/16 07:02:34;;;;;;;1999.90;999.90;;;;;;;-145.26;100.00;63821.50;5018406;28;20510;-66
2022/05/16 07:05:01;;;;;;;1999.90;999.90;;;;;;;-145.26;100.00;63821.50;5009808;28;20029;-65
2022/05/16 07:07:28;;;;;;;1999.90;999.90;;;;;;;-145.26;100.00;63821.50;5007655;28;20029;-65
2022/05/16 07:09:53;;;;;;;1999.90;999.90;;;;;;;-145.26;100.00;63821.50;5020136;28;20025;-65
2022/05/16 07:12:19;;;;;;;1999.90;999.90;;;;;;;-145.26;100.00;63821.50;5006286;28;20021;-65
2022/05/16 07:14:45;;;;;;;1999.90;999.90;;;;;;;-145.26;100.00;63821.50;5008852;28;20033;-66
2022/05/16 07:17:11;;;;;;;1999.90;999.90;;;;;;;-145.26;100.00;63821.50;5019468;28;20137;-65
2022/05/16 07:19:37;;;;;;;1999.90;999.90;;;;;;;-145.26;100.00;63821.50;4989019;28;20628;-65
2022/05/16 07:22:07;;;;;;;1999.90;999.90;;;;;;;-145.26;100.00;63821.50;4992477;28;20026;-66
2022/05/16 07:24:32;;;;;;;1999.90;999.90;;;;;;;-145.26;100.00;63821.50;5005877;28;20079;-66
2022/05/16 07:29:42;;;;;;;1999.90;999.90;;;;;;;-145.26;100.00;63821.50;4993180;28;20073;-66
2022/05/16 07:32:10;;;;;;;1999.90;999.90;;;;;;;-145.26;100.00;63821.50;5018639;28;20026;-67
2022/05/16 07:34:36;;;;;;;1999.90;999.90;;;;;;;-145.26;100.00;63821.50;5010338;28;20029;-68
2022/05/16 07:37:01;;;;;;;1999.90;999.90;;;;;;;-145.26;100.00;63821.50;5004159;28;20033;-69
2022/05/16 07:39:26;;;;;;;1999.90;999.90;;;;;;;-145.26;100.00;63821.50;5014141;28;20455;-70
2022/05/16 07:41:54;;;;;;;1999.90;999.90;;;;;;;-145.26;100.00;63821.50;4991817;28;20032;-70
2022/05/16 07:44:20;;;;;;;1999.90;999.90;;;;;;;-145.26;100.00;63821.50;5009870;28;20033;-70
2022/05/16 07:46:45;;;;;;;1999.90;999.90;;;;;;;-145.26;100.00;63821.50;5009493;28;20034;-69
2022/05/16 07:49:13;;;;;;;1999.90;999.90;;;;;;;-145.26;100.00;63821.50;5008104;28;20088;-69
2022/05/16 07:51:39;;;;;;;1999.90;999.90;;;;;;;-145.26;100.00;63821.50;5009649;28;20493;-69
2022/05/16 07:54:05;;;;;;;1999.90;999.90;;;;;;;-145.26;100.00;63821.50;4991646;28;20438;-69
2022/05/16 07:56:32;;;;;;;1999.90;999.90;;;;;;;-145.26;100.00;63821.50;5008792;28;20516;-69
2022/05/16 07:58:57;;;;;;;1999.90;999.90;;;;;;;-145.26;100.00;63821.50;4991586;28;20033;-70
2022/05/16 08:01:22;;;;;;;1999.90;999.90;;;;;;;-145.26;100.00;63821.50;5007859;28;20030;-69
2022/05/16 08:03:48;;;;;;;1999.90;999.90;;;;;;;-145.26;100.00;63821.50;4990989;28;20467;-71
2022/05/16 08:06:13;;;;;;;1999.90;999.90;;;;;;;-145.26;100.00;63821.50;4994736;28;20109;-70
2022/05/16 08:11:22;;;;;;;1999.90;999.90;;;;;;;-145.26;100.00;63821.50;5011875;28;20036;-72
2022/05/16 08:13:48;;;;;;;1999.90;999.90;;;;;;;-145.26;100.00;63821.50;5011524;28;20022;-70
2022/05/16 08:16:13;;;;;;;1999.90;999.90;;;;;;;-145.26;100.00;63821.50;4995645;28;20056;-70
2022/05/16 08:18:40;;;;;;;1999.90;999.90;;;;;;;-145.26;100.00;63821.50;4994429;28;20022;-71
2022/05/16 08:21:05;;;;;;;1999.90;999.90;;;;;;;-145.26;100.00;63821.50;4994653;28;20030;-70
2022/05/16 08:23:31;;;;;;;1999.90;999.90;;;;;;;-145.26;100.00;63821.50;4995309;28;20026;-71
2022/05/16 08:26:01;;;;;;;1999.90;999.90;;;;;;;-145.26;100.00;63821.50;4994716;28;20026;-70
2022/05/16 08:28:26;;;;;;;1999.90;999.90;;;;;;;-145.26;100.00;63821.50;5012250;28;20026;-70
2022/05/16 08:30:53;;;;;;;1999.90;999.90;;;;;;;-145.26;100.00;63821.50;5013061;28;20494;-70
2022/05/16 08:33:18;;;;;;;1999.90;999.90;;;;;;;-145.26;100.00;63821.50;5012782;28;20026;-69
2022/05/16 08:35:44;;;;;;;1999.90;999.90;;;;;;;-145.26;100.00;63821.50;5011941;28;20459;-70
2022/05/16 08:41:05;;;;;;;1999.90;999.90;;;;;;;-145.26;100.00;63821.50;5013088;28;20038;-70
2022/05/16 08:43:54;;;;;;;1999.90;999.90;;;;;;;-145.26;100.00;63821.50;5012753;28;20030;-70
2022/05/16 08:46:55;;;;;;;1999.90;999.90;;;;;;;-145.26;100.00;63821.50;5012143;28;20088;-70
2022/05/16 08:49:34;;;;;;;1999.90;999.90;;;;;;;-145.26;100.00;63821.50;4994548;28;20466;-71
2022/05/16 08:52:35;;;;;;;1999.90;999.90;;;;;;;-145.26;100.00;63821.50;4994570;28;20255;-71
2022/05/16 08:55:13;;;;;;;1999.90;999.90;;;;;;;-145.26;100.00;63821.50;5012529;28;20083;-71
2022/05/16 08:57:44;;;;;;;1999.90;999.90;;;;;;;-145.26;100.00;63821.50;4993921;28;20045;-70
2022/05/16 09:00:30;;;;;;;;;;;;;;;-145.26;100.00;63821.50;4994997;28;20026;-70
2022/05/16 09:02:57;;;;;;;1999.90;999.90;;;;;;;-145.26;100.00;63821.50;4994377;28;19914;-70
2022/05/16 09:05:26;;;;;;;1999.90;999.90;;;;;;;-145.26;100.00;63821.50;5011731;28;20029;-70
2022/05/16 09:07:53;;;;;;;1999.90;999.90;;;;;;;-145.26;100.00;63821.50;5012824;28;20606;-69
2022/05/16 09:10:24;;;;;;;1999.90;999.90;;;;;;;-145.26;100.00;63821.50;5012440;28;20034;-69
2022/05/16 09:13:12;;;;;;;1999.90;999.90;;;;;;;-145.26;100.00;63821.50;4994878;28;20032;-69
2022/05/16 09:15:49;;;;;;;1999.90;999.90;;;;;;;-145.26;100.00;63821.50;5011049;28;20621;-70
2022/05/16 09:18:55;;;;;;;1999.90;999.90;;;;;;;-145.26;100.00;63821.50;4994466;28;20618;-69
2022/05/16 09:21:30;;;;;;;1999.90;999.90;;;;;;;-145.26;100.00;63821.50;4993755;28;20064;-69
2022/05/16 09:24:07;;;;;;;1999.90;999.90;;;;;;;-145.26;100.00;63821.50;4994529;28;20029;-69
2022/05/16 09:26:36;;;;;;;1999.90;999.90;;;;;;;-145.26;100.00;63821.50;5011956;28;20360;-68
2022/05/16 09:29:11;;;;;;;1999.90;999.90;;;;;;;-145.26;100.00;63821.50;5011682;28;20065;-70
2022/05/16 09:31:42;;;;;;;1999.90;999.90;;;;;;;-145.26;100.00;63821.50;5010295;28;20449;-69
2022/05/16 09:34:09;;;;;;;1999.90;999.90;;;;;;;-145.26;100.00;63821.50;5012053;28;20490;-69
2022/05/16 09:36:41;;;;;;;1999.90;999.90;;;;;;;-145.26;100.00;63821.50;4993364;28;20033;-69
2022/05/16 09:39:10;;;;;;;1999.90;999.90;;;;;;;-145.26;100.00;63821.50;5011764;28;20497;-69
2022/05/16 09:41:39;;;;;;;1999.90;999.90;;;;;;;-145.26;100.00;63821.50;5012017;28;20109;-70
2022/05/16 09:44:22;;;;;;;1999.90;999.90;;;;;;;-145.26;100.00;63821.50;4993778;28;20026;-69
2022/05/16 09:46:48;;;;;;;1999.90;999.90;;;;;;;-145.26;100.00;63821.50;4993312;28;20041;-69
2022/05/16 09:49:21;;;;;;;1999.90;999.90;;;;;;;-145.26;100.00;63821.50;5011640;28;20030;-69
2022/05/16 09:51:46;;;;;;;1999.90;999.90;;;;;;;-145.26;100.00;63821.50;4993401;28;20088;-69
2022/05/16 09:54:22;;;;;;;1999.90;999.90;;;;;;;-145.26;100.00;63821.50;4993334;28;20429;-69
2022/05/16 09:56:53;;;;;;;1999.90;999.90;;;;;;;-145.26;100.00;63821.50;4982656;28;20029;-70
2022/05/16 09:59:32;;;;;;;;;;;;;;;-145.26;100.00;63821.50;5011430;28;20040;-69
2022/05/16 10:02:12;;;;;;;1999.90;999.90;;;;;;;-145.26;100.00;63821.50;5011398;28;20081;-69
2022/05/16 10:04:42;;;;;;;1999.90;999.90;;;;;;;-145.26;100.00;63821.50;4992621;28;20033;-69
2022/05/16 10:07:08;;;;;;;1999.90;999.90;;;;;;;-145.26;100.00;63821.50;5011243;28;20033;-69
2022/05/16 10:09:54;;;;;;;1999.90;999.90;;;;;;;-145.26;100.00;63821.50;5010965;28;20471;-70
2022/05/16 10:12:23;;;;;;;1999.90;999.90;;;;;;;-145.26;100.00;63821.50;4993766;28;20034;-70
2022/05/16 10:14:49;;;;;;;1999.90;999.90;;;;;;;-145.26;100.00;63821.50;4993657;28;20037;-69
2022/05/16 10:17:34;;;;;;;1999.90;999.90;;;;;;;-145.26;100.00;63821.50;4992820;28;20030;-70
2022/05/16 10:20:24;;;;;;;1999.90;999.90;;;;;;;-145.26;100.00;63821.50;4991396;28;20038;-70
2022/05/16 10:22:53;;;;;;;1999.90;999.90;;;;;;;-145.26;100.00;63821.50;4993386;28;20029;-69
2022/05/16 10:25:23;;;;;;;1999.90;999.90;;;;;;;-145.26;100.00;63821.50;5010952;28;20083;-69
2022/05/16 10:27:51;;;;;;;1999.90;999.90;;;;;;;-145.26;100.00;63821.50;4992227;28;20058;-69
2022/05/16 10:30:22;;;;;;;1999.90;999.90;;;;;;;-145.26;100.00;63821.50;5008924;28;20022;-69
2022/05/16 10:35:50;;;;;;;1999.90;999.90;;;;;;;-145.26;100.00;63821.50;5010131;28;20037;-69
2022/05/16 10:38:25;;;;;;;1999.90;999.90;;;;;;;-145.26;100.00;63821.50;5010433;28;20025;-68
2022/05/16 10:40:59;;;;;;;1999.90;999.90;;;;;;;-145.26;100.00;63821.50;4993423;28;20022;-69
2022/05/16 10:43:30;;;;;;;1999.90;999.90;;;;;;;-145.26;100.00;63821.50;5009567;28;20113;-69
2022/05/16 10:46:15;;;;;;;1999.90;999.90;;;;;;;-145.26;100.00;63821.50;4993070;28;20030;-69
2022/05/16 10:48:51;;;;;;;1999.90;999.90;;;;;;;-145.26;100.00;63821.50;5009954;28;20069;-69
2022/05/16 10:51:38;;;;;;;1999.90;999.90;;;;;;;-145.26;100.00;63821.50;5009585;28;20037;-70
2022/05/16 10:54:24;;;;;;;1999.90;999.90;;;;;;;-145.26;100.00;63821.50;5010711;28;20022;-69
2022/05/16 10:57:10;;;;;;;1999.90;999.90;;;;;;;-145.26;100.00;63821.50;4992753;28;20026;-69
2022/05/16 10:59:54;;;;;;;1999.90;999.90;;;;;;;-145.26;100.00;63821.50;4992498;28;20386;-69
2022/05/16 11:02:37;;;;;;;1999.90;999.90;;;;;;;-145.26;100.00;63821.50;5009360;28;20037;-69
2022/05/16 11:05:12;;;;;;;1999.90;999.90;;;;;;;-145.26;100.00;63821.50;5010261;28;20029;-69